createdAt,value
2023-01-07T00:01:07.324Z,7.97
2023-01-07T00:04:13.080Z,10.77
2023-01-07T00:07:15.689Z,7.87
2023-01-07T00:10:18.301Z,8.20
2023-01-07T00:13:20.892Z,9.03
2023-01-07T00:16:25.473Z,12.07
2023-01-07T00:19:29.470Z,9.47
2023-01-07T00:22:32.058Z,11.30
2023-01-07T00:25:34.662Z,10.03
2023-01-07T00:28:39.198Z,6.87
2023-01-07T00:31:42.291Z,9.93
2023-01-07T00:34:46.300Z,11.53
2023-01-07T00:37:51.830Z,10.73
2023-01-07T00:40:54.463Z,12.33
2023-01-07T00:43:57.787Z,10.80
2023-01-07T00:47:00.746Z,10.30
2023-01-07T00:50:05.121Z,12.37
2023-01-07T00:53:07.957Z,13.50
2023-01-07T00:56:11.299Z,9.63
2023-01-07T00:59:13.908Z,11.70
2023-01-07T01:02:16.549Z,15.83
2023-01-07T01:05:21.760Z,10.13
2023-01-07T01:08:24.369Z,14.17
2023-01-07T01:11:26.956Z,11.50
2023-01-07T01:14:29.543Z,12.20
2023-01-07T01:17:32.197Z,14.20
2023-01-07T01:20:36.665Z,13.90
2023-01-07T01:23:39.603Z,11.20
2023-01-07T01:26:42.187Z,13.00
2023-01-07T01:29:44.794Z,14.07
2023-01-07T01:32:47.359Z,21.03
2023-01-07T01:35:51.293Z,14.73
2023-01-07T01:38:53.992Z,16.47
2023-01-07T01:41:56.887Z,14.73
2023-01-07T01:45:01.130Z,16.53
2023-01-07T01:48:07.624Z,19.33
2023-01-07T01:51:12.789Z,17.43
2023-01-07T01:54:19.518Z,17.83
2023-01-07T01:57:23.828Z,22.67
2023-01-07T02:00:26.715Z,18.87
2023-01-07T02:03:31.447Z,21.17
2023-01-07T02:06:38.494Z,21.67
2023-01-07T02:09:41.071Z,27.47
2023-01-07T02:12:51.197Z,22.90
2023-01-07T02:16:00.181Z,23.23
2023-01-07T02:19:23.309Z,24.67
2023-01-07T02:22:51.007Z,21.77
2023-01-07T02:26:35.712Z,23.17
2023-01-07T02:30:03.686Z,24.07
2023-01-07T02:33:31.163Z,24.13
2023-01-07T02:36:47.174Z,26.13
2023-01-07T02:39:57.915Z,27.43
2023-01-07T02:43:12.301Z,30.97
2023-01-07T02:46:21.356Z,29.73
2023-01-07T02:49:25.339Z,27.47
2023-01-07T02:52:30.104Z,28.93
2023-01-07T02:55:43.144Z,31.47
2023-01-07T02:59:07.609Z,32.40
2023-01-07T03:02:27.316Z,31.57
2023-01-07T03:05:46.979Z,29.10
2023-01-07T03:09:01.933Z,29.23
2023-01-07T03:12:12.425Z,29.20
2023-01-07T03:15:21.040Z,34.33
2023-01-07T03:18:27.135Z,30.27
2023-01-07T03:21:34.785Z,34.63
2023-01-07T03:24:39.400Z,29.13
2023-01-07T03:27:47.069Z,30.07
2023-01-07T03:30:52.679Z,31.57
2023-01-07T03:34:00.229Z,35.47
2023-01-07T03:37:10.747Z,33.13
2023-01-07T03:40:13.720Z,34.00
2023-01-07T03:43:18.627Z,31.63
2023-01-07T03:46:21.301Z,32.03
2023-01-07T03:49:23.883Z,34.97
2023-01-07T03:52:27.892Z,33.53
2023-01-07T03:55:30.535Z,32.13
2023-01-07T03:58:33.125Z,35.83
2023-01-07T04:01:35.745Z,30.00
2023-01-07T04:04:38.518Z,30.70
2023-01-07T04:07:42.534Z,32.57
2023-01-07T04:10:45.144Z,27.70
2023-01-07T04:13:47.804Z,31.17
2023-01-07T04:16:51.399Z,28.83
2023-01-07T04:19:54.187Z,31.70
2023-01-07T04:22:58.182Z,30.07
2023-01-07T04:26:00.882Z,33.17
2023-01-07T04:29:03.539Z,31.20
2023-01-07T04:32:06.397Z,31.63
2023-01-07T04:35:09.974Z,29.97
2023-01-07T04:38:13.995Z,29.40
2023-01-07T04:41:16.630Z,29.10
2023-01-07T04:44:19.229Z,40.40
2023-01-07T04:47:21.821Z,30.57
2023-01-07T04:50:25.057Z,29.57
2023-01-07T04:53:29.011Z,38.63
2023-01-07T04:56:31.659Z,30.63
2023-01-07T04:59:34.241Z,35.03
2023-01-07T05:02:36.926Z,29.97
2023-01-07T05:05:39.503Z,30.33
2023-01-07T05:08:43.432Z,31.77
2023-01-07T05:11:46.050Z,30.03
2023-01-07T05:14:48.647Z,30.17
2023-01-07T05:17:51.259Z,31.50
2023-01-07T05:20:53.919Z,30.27
2023-01-07T05:23:57.851Z,31.77
2023-01-07T05:27:00.613Z,30.77
2023-01-07T05:30:03.217Z,41.93
2023-01-07T05:33:07.102Z,27.33
2023-01-07T05:36:09.854Z,32.70
2023-01-07T05:39:13.879Z,27.90
2023-01-07T05:42:16.442Z,31.73
2023-01-07T05:45:19.977Z,31.43
2023-01-07T05:48:22.870Z,29.60
2023-01-07T05:51:25.457Z,32.70
2023-01-07T05:54:29.397Z,29.40
2023-01-07T05:57:32.047Z,63.43
2023-01-07T06:00:35.022Z,27.40
2023-01-07T06:03:37.636Z,28.50
2023-01-07T06:06:40.270Z,37.20
2023-01-07T06:09:44.229Z,30.27
2023-01-07T06:12:46.807Z,33.57
2023-01-07T06:15:49.440Z,29.17
2023-01-07T06:18:52.039Z,31.50
2023-01-07T06:21:54.651Z,37.63
2023-01-07T06:24:58.776Z,31.07
2023-01-07T06:28:01.405Z,28.93
2023-01-07T06:31:04.057Z,34.13
2023-01-07T06:34:06.670Z,27.40
2023-01-07T06:37:09.515Z,29.40
2023-01-07T06:40:13.814Z,31.80
2023-01-07T06:43:16.510Z,36.87
2023-01-07T06:46:19.359Z,35.40
2023-01-07T06:49:21.948Z,31.10
2023-01-07T06:52:24.568Z,26.67
2023-01-07T06:55:28.566Z,28.57
2023-01-07T06:58:31.200Z,27.63
2023-01-07T07:01:33.930Z,28.90
2023-01-07T07:04:36.639Z,31.10
2023-01-07T07:07:39.248Z,30.07
2023-01-07T07:10:43.178Z,29.57
2023-01-07T07:13:45.799Z,29.33
2023-01-07T07:16:49.463Z,29.70
2023-01-07T07:19:52.051Z,28.57
2023-01-07T07:22:54.665Z,29.10
2023-01-07T07:25:58.656Z,25.30
2023-01-07T07:29:01.326Z,26.80
2023-01-07T07:32:04.144Z,24.07
2023-01-07T07:35:07.530Z,23.93
2023-01-07T07:38:10.477Z,25.90
2023-01-07T07:41:14.633Z,27.10
2023-01-07T07:44:17.227Z,27.50
2023-01-07T07:47:20.047Z,26.50
2023-01-07T07:50:22.895Z,25.50
2023-01-07T07:53:25.500Z,25.67
2023-01-07T07:56:29.504Z,27.67
2023-01-07T07:59:32.148Z,26.80
2023-01-07T08:02:34.719Z,24.63
2023-01-07T08:05:41.135Z,29.50
2023-01-07T08:08:43.804Z,26.33
2023-01-07T08:11:47.846Z,26.40
2023-01-07T08:14:50.475Z,26.23
2023-01-07T08:18:00.383Z,26.93
2023-01-07T08:21:03.387Z,24.87
2023-01-07T08:24:06.914Z,29.70
2023-01-07T08:27:10.959Z,23.33
2023-01-07T08:30:13.810Z,24.03
2023-01-07T08:33:16.390Z,22.20
2023-01-07T08:36:22.913Z,21.53
2023-01-07T08:39:25.929Z,23.30
2023-01-07T08:42:30.974Z,19.97
2023-01-07T08:45:34.003Z,23.43
2023-01-07T08:48:38.872Z,22.20
2023-01-07T08:51:41.442Z,29.87
2023-01-07T08:54:44.059Z,22.53
2023-01-07T08:57:48.436Z,22.63
2023-01-07T09:00:51.108Z,25.70
2023-01-07T09:03:53.774Z,23.83
2023-01-07T09:06:57.801Z,23.40
2023-01-07T09:10:00.414Z,20.17
2023-01-07T09:13:04.389Z,18.10
2023-01-07T09:16:07.626Z,19.20
2023-01-07T09:19:10.267Z,19.40
2023-01-07T09:22:12.919Z,15.70
2023-01-07T09:25:15.547Z,21.20
2023-01-07T09:28:19.531Z,14.20
2023-01-07T09:31:22.856Z,18.97
2023-01-07T09:34:26.771Z,14.67
2023-01-07T09:37:29.359Z,14.20
2023-01-07T09:40:36.614Z,12.63
2023-01-07T09:43:59.320Z,14.43
2023-01-07T09:47:05.333Z,16.77
2023-01-07T09:50:15.832Z,12.87
2023-01-07T09:53:22.840Z,16.60
2023-01-07T09:56:28.599Z,12.80
2023-01-07T09:59:33.043Z,11.50
2023-01-07T10:02:45.973Z,9.50
2023-01-07T10:06:02.166Z,13.13
2023-01-07T10:09:09.728Z,14.10
2023-01-07T10:12:20.140Z,7.00
2023-01-07T10:15:44.215Z,18.17
2023-01-07T10:18:59.466Z,8.17
2023-01-07T10:22:10.056Z,5.50
2023-01-07T10:25:16.617Z,9.80
2023-01-07T10:28:22.495Z,10.00
2023-01-07T10:31:28.638Z,5.47
2023-01-07T10:34:38.515Z,5.33
2023-01-07T10:37:43.161Z,6.33
2023-01-07T10:40:51.603Z,3.80
2023-01-07T10:44:07.827Z,4.60
2023-01-07T10:47:24.504Z,3.50
2023-01-07T10:50:49.629Z,3.43
2023-01-07T10:54:04.269Z,3.20
2023-01-07T10:57:13.105Z,3.47
2023-01-07T11:00:18.118Z,4.33
2023-01-07T11:03:23.983Z,2.97
2023-01-07T11:06:41.826Z,3.20
2023-01-07T11:09:46.851Z,2.90
2023-01-07T11:12:52.105Z,6.20
2023-01-07T11:15:58.992Z,4.60
2023-01-07T11:19:06.680Z,3.47
2023-01-07T11:22:29.445Z,4.17
2023-01-07T11:25:32.031Z,2.60
2023-01-07T11:28:35.151Z,5.23
2023-01-07T11:31:47.741Z,2.33
2023-01-07T11:34:57.328Z,3.80
2023-01-07T11:38:00.701Z,3.73
2023-01-07T11:41:05.107Z,3.00
2023-01-07T11:44:16.558Z,3.60
2023-01-07T11:47:20.541Z,6.17
2023-01-07T11:50:27.329Z,2.63
2023-01-07T11:53:36.601Z,2.53
2023-01-07T11:56:39.189Z,1.90
2023-01-07T11:59:41.754Z,2.60
2023-01-07T12:02:44.794Z,4.10
2023-01-07T12:05:57.953Z,3.80
2023-01-07T12:09:10.869Z,2.77
2023-01-07T12:12:36.832Z,3.17
2023-01-07T12:15:50.670Z,4.37
2023-01-07T12:19:03.591Z,3.73
2023-01-07T12:22:19.980Z,4.43
2023-01-07T12:25:38.905Z,3.30
2023-01-07T12:29:00.194Z,2.90
2023-01-07T12:32:19.619Z,2.43
2023-01-07T12:35:27.315Z,2.30
2023-01-07T12:38:42.069Z,3.43
2023-01-07T12:41:49.741Z,2.10
2023-01-07T12:44:56.350Z,2.80
2023-01-07T12:48:03.543Z,2.77
2023-01-07T12:51:15.213Z,2.20
2023-01-07T12:54:24.303Z,5.33
2023-01-07T12:57:31.556Z,2.20
2023-01-07T13:00:40.237Z,4.20
2023-01-07T13:03:51.722Z,2.27
2023-01-07T13:06:59.612Z,3.23
2023-01-07T13:10:07.443Z,2.37
2023-01-07T13:13:17.349Z,2.40
2023-01-07T13:16:20.045Z,2.80
2023-01-07T13:19:22.673Z,2.60
2023-01-07T13:22:31.100Z,2.43
2023-01-07T13:25:50.434Z,2.23
2023-01-07T13:29:20.775Z,3.97
2023-01-07T13:32:46.441Z,3.47
2023-01-07T13:36:09.333Z,102.50
2023-01-07T13:39:29.295Z,9.20
2023-01-07T13:42:45.944Z,20.70
2023-01-07T13:45:55.935Z,5.70
2023-01-07T13:48:58.842Z,7.23
2023-01-07T13:52:15.607Z,4.87
2023-01-07T13:55:35.642Z,4.10
2023-01-07T13:58:50.052Z,2.93
2023-01-07T14:02:15.906Z,3.00
2023-01-07T14:05:25.485Z,2.77
2023-01-07T14:08:29.314Z,5.03
2023-01-07T14:11:52.234Z,4.00
2023-01-07T14:15:16.216Z,4.50
2023-01-07T14:18:40.036Z,4.77
2023-01-07T14:21:55.853Z,2.50
2023-01-07T14:25:26.581Z,2.67
2023-01-07T14:28:53.070Z,2.63
2023-01-07T14:32:14.300Z,3.83
2023-01-07T14:35:27.926Z,7.20
2023-01-07T14:39:07.225Z,1.90
2023-01-07T14:42:42.178Z,2.27
2023-01-07T14:45:55.189Z,3.57
2023-01-07T14:49:27.545Z,3.37
2023-01-07T14:52:50.192Z,1.97
2023-01-07T14:56:07.110Z,1.57
2023-01-07T14:59:36.490Z,1.80
2023-01-07T15:03:12.753Z,1.93
2023-01-07T15:06:25.630Z,2.60
2023-01-07T15:09:55.017Z,1.87
2023-01-07T15:13:13.209Z,2.57
2023-01-07T15:16:17.366Z,2.73
2023-01-07T15:19:20.817Z,3.00
2023-01-07T15:22:54.230Z,4.07
2023-01-07T15:26:05.167Z,6.30
2023-01-07T15:29:17.963Z,6.23
2023-01-07T15:32:33.479Z,3.07
2023-01-07T15:35:42.891Z,3.60
2023-01-07T15:38:50.725Z,5.13
2023-01-07T15:41:55.105Z,5.00
2023-01-07T15:45:00.040Z,4.97
2023-01-07T15:48:07.816Z,4.90
2023-01-07T15:51:16.424Z,5.00
2023-01-07T15:54:35.357Z,12.10
2023-01-07T15:57:38.028Z,12.87
2023-01-07T16:00:41.488Z,2.57
2023-01-07T16:03:44.953Z,4.00
2023-01-07T16:06:47.556Z,4.23
2023-01-07T16:09:51.855Z,4.70
2023-01-07T16:12:55.985Z,5.33
2023-01-07T16:16:01.450Z,2.13
2023-01-07T16:19:04.535Z,4.47
2023-01-07T16:22:07.996Z,4.70
2023-01-07T16:25:21.631Z,4.00
2023-01-07T16:28:28.359Z,2.40
2023-01-07T16:31:31.796Z,2.83
2023-01-07T16:35:07.317Z,3.63
2023-01-07T16:38:10.303Z,2.50
2023-01-07T16:41:21.898Z,2.27
2023-01-07T16:44:59.879Z,5.30
2023-01-07T16:48:14.473Z,2.07
2023-01-07T16:51:36.590Z,1.70
2023-01-07T16:54:41.814Z,1.47
2023-01-07T16:57:47.833Z,2.57
2023-01-07T17:00:53.314Z,4.00
2023-01-07T17:03:58.574Z,2.20
2023-01-07T17:07:02.227Z,3.23
2023-01-07T17:10:06.458Z,1.87
2023-01-07T17:13:35.898Z,2.10
2023-01-07T17:16:39.388Z,3.43
2023-01-07T17:19:47.060Z,5.13
2023-01-07T17:22:50.629Z,2.53
2023-01-07T17:25:57.265Z,1.97
2023-01-07T17:29:04.769Z,2.43
2023-01-07T17:32:07.805Z,2.23
2023-01-07T17:35:17.937Z,2.30
2023-01-07T17:38:21.268Z,3.17
2023-01-07T17:41:42.178Z,2.93
2023-01-07T17:44:48.365Z,3.50
2023-01-07T17:47:52.550Z,2.10
2023-01-07T17:50:56.972Z,1.97
2023-01-07T17:54:00.121Z,2.50
2023-01-07T17:57:02.704Z,4.43
2023-01-07T18:00:13.280Z,3.83
2023-01-07T18:03:16.185Z,2.87
2023-01-07T18:06:21.219Z,2.77
2023-01-07T18:09:24.031Z,3.30
2023-01-07T18:12:34.423Z,5.20
2023-01-07T18:15:38.373Z,1.87
2023-01-07T18:18:41.007Z,4.13
2023-01-07T18:21:43.652Z,3.87
2023-01-07T18:24:46.261Z,1.87
2023-01-07T18:27:52.478Z,1.83
2023-01-07T18:30:56.427Z,3.37
2023-01-07T18:33:58.997Z,1.47
2023-01-07T18:37:01.628Z,2.30
2023-01-07T18:40:05.158Z,2.43
2023-01-07T18:43:07.992Z,2.77
2023-01-07T18:46:11.989Z,1.50
2023-01-07T18:49:15.305Z,1.90
2023-01-07T18:52:17.924Z,1.27
2023-01-07T18:55:20.951Z,1.50
2023-01-07T18:58:24.381Z,1.40
2023-01-07T19:01:28.489Z,1.70
2023-01-07T19:04:31.288Z,3.23
2023-01-07T19:07:35.129Z,3.57
2023-01-07T19:10:42.297Z,3.37
2023-01-07T19:13:44.874Z,3.40
2023-01-07T19:16:49.034Z,3.70
2023-01-07T19:19:52.009Z,3.27
2023-01-07T19:23:00.229Z,3.40
2023-01-07T19:26:05.014Z,3.03
2023-01-07T19:29:07.812Z,1.90
2023-01-07T19:32:11.719Z,2.97
2023-01-07T19:35:14.733Z,3.30
2023-01-07T19:38:17.386Z,3.80
2023-01-07T19:41:21.366Z,3.33
2023-01-07T19:44:23.978Z,2.20
2023-01-07T19:47:27.961Z,3.57
2023-01-07T19:50:30.542Z,3.03
2023-01-07T19:53:34.286Z,4.00
2023-01-07T19:56:37.257Z,2.87
2023-01-07T19:59:39.849Z,4.00
2023-01-07T20:02:43.801Z,6.73
2023-01-07T20:05:46.542Z,3.80
2023-01-07T20:08:49.461Z,4.20
2023-01-07T20:11:52.040Z,3.33
2023-01-07T20:14:54.615Z,5.80
2023-01-07T20:17:58.566Z,4.13
2023-01-07T20:21:01.549Z,4.23
2023-01-07T20:24:06.129Z,2.70
2023-01-07T20:27:08.735Z,4.90
2023-01-07T20:30:12.528Z,4.87
2023-01-07T20:33:17.044Z,2.90
2023-01-07T20:36:22.245Z,2.57
2023-01-07T20:39:24.885Z,3.53
2023-01-07T20:42:27.835Z,2.80
2023-01-07T20:45:30.491Z,3.27
2023-01-07T20:48:35.114Z,2.93
2023-01-07T20:51:38.437Z,3.23
2023-01-07T20:54:41.023Z,3.20
2023-01-07T20:57:43.678Z,2.77
2023-01-07T21:00:46.302Z,3.17
2023-01-07T21:03:50.354Z,3.10
2023-01-07T21:06:52.961Z,5.17
2023-01-07T21:09:55.536Z,3.87
2023-01-07T21:12:58.144Z,3.37
2023-01-07T21:16:04.112Z,3.73
2023-01-07T21:19:08.092Z,2.47
2023-01-07T21:22:10.771Z,2.80
2023-01-07T21:25:15.349Z,4.77
2023-01-07T21:28:17.946Z,2.70
2023-01-07T21:31:20.633Z,11.40
2023-01-07T21:34:24.670Z,6.10
2023-01-07T21:37:29.128Z,14.53
2023-01-07T21:40:31.936Z,7.20
2023-01-07T21:43:34.554Z,3.43
2023-01-07T21:46:37.185Z,3.87
2023-01-07T21:49:41.117Z,4.03
2023-01-07T21:52:43.732Z,2.37
2023-01-07T21:55:46.306Z,3.63
2023-01-07T21:58:49.287Z,3.37
2023-01-07T22:01:52.545Z,3.17
2023-01-07T22:04:56.552Z,3.53
2023-01-07T22:07:59.142Z,4.27
2023-01-07T22:11:01.907Z,2.80
2023-01-07T22:14:04.537Z,3.93
2023-01-07T22:17:07.888Z,3.83
2023-01-07T22:20:13.254Z,5.20
2023-01-07T22:23:17.681Z,8.23
2023-01-07T22:26:21.704Z,5.57
2023-01-07T22:29:24.309Z,3.97
2023-01-07T22:32:26.901Z,4.40
2023-01-07T22:35:30.913Z,3.57
2023-01-07T22:38:34.097Z,3.57
2023-01-07T22:41:37.597Z,3.50
2023-01-07T22:44:43.836Z,4.13
2023-01-07T22:47:49.946Z,4.43
2023-01-07T22:50:57.512Z,3.63
2023-01-07T22:54:01.444Z,6.57
2023-01-07T22:57:05.854Z,6.70
2023-01-07T23:00:15.843Z,4.97
2023-01-07T23:03:18.661Z,3.37
2023-01-07T23:06:22.649Z,3.33
2023-01-07T23:09:25.226Z,3.07
2023-01-07T23:12:27.805Z,4.63
2023-01-07T23:15:30.387Z,4.70
2023-01-07T23:18:33.224Z,2.77
2023-01-07T23:21:40.294Z,3.33
2023-01-07T23:24:42.950Z,3.20
2023-01-07T23:27:45.602Z,3.27
2023-01-07T23:30:49.216Z,3.30
2023-01-07T23:33:51.784Z,3.70
2023-01-07T23:36:55.741Z,3.53
2023-01-07T23:39:58.334Z,3.70
2023-01-07T23:43:01.084Z,3.10
2023-01-07T23:46:06.411Z,2.57
2023-01-07T23:49:09.113Z,4.23
2023-01-07T23:52:13.143Z,3.30
2023-01-07T23:55:15.796Z,2.83
2023-01-07T23:58:18.393Z,3.53
